sensor_id;sensor_type;location;lat;lon;timestamp;temperature;humidity
9919;DHT22;4998;51.024;13.828;2023-02-28T00:01:20;5.20;83.10
9919;DHT22;4998;51.024;13.828;2023-02-28T00:03:47;5.20;82.90
9919;DHT22;4998;51.024;13.828;2023-02-28T00:06:15;5.20;82.80
9919;DHT22;4998;51.024;13.828;2023-02-28T00:08:42;5.20;82.70
9919;DHT22;4998;51.024;13.828;2023-02-28T00:11:15;5.10;82.50
9919;DHT22;4998;51.024;13.828;2023-02-28T00:13:44;5.10;82.20
9919;DHT22;4998;51.024;13.828;2023-02-28T00:16:17;5.10;82.40
9919;DHT22;4998;51.024;13.828;2023-02-28T00:18:44;5.10;82.00
9919;DHT22;4998;51.024;13.828;2023-02-28T00:21:13;5.10;82.10
9919;DHT22;4998;51.024;13.828;2023-02-28T00:23:40;5.10;82.10
9919;DHT22;4998;51.024;13.828;2023-02-28T00:26:07;5.10;82.40
9919;DHT22;4998;51.024;13.828;2023-02-28T00:28:34;5.10;82.50
9919;DHT22;4998;51.024;13.828;2023-02-28T00:31:01;5.10;82.50
9919;DHT22;4998;51.024;13.828;2023-02-28T00:33:29;5.10;82.60
9919;DHT22;4998;51.024;13.828;2023-02-28T00:36:04;5.10;82.80
9919;DHT22;4998;51.024;13.828;2023-02-28T00:38:31;5.10;82.60
9919;DHT22;4998;51.024;13.828;2023-02-28T00:40:59;5.10;82.80
9919;DHT22;4998;51.024;13.828;2023-02-28T00:43:30;5.10;82.80
9919;DHT22;4998;51.024;13.828;2023-02-28T00:45:57;5.10;82.90
9919;DHT22;4998;51.024;13.828;2023-02-28T00:48:25;5.10;82.60
9919;DHT22;4998;51.024;13.828;2023-02-28T00:50:53;5.10;82.60
9919;DHT22;4998;51.024;13.828;2023-02-28T00:53:20;5.10;82.80
9919;DHT22;4998;51.024;13.828;2023-02-28T00:55:48;5.00;82.90
9919;DHT22;4998;51.024;13.828;2023-02-28T00:58:15;5.00;83.00
9919;DHT22;4998;51.024;13.828;2023-02-28T01:00:42;5.00;82.80
9919;DHT22;4998;51.024;13.828;2023-02-28T01:03:09;5.00;82.80
9919;DHT22;4998;51.024;13.828;2023-02-28T01:05:36;5.00;82.70
9919;DHT22;4998;51.024;13.828;2023-02-28T01:08:04;5.10;82.80
9919;DHT22;4998;51.024;13.828;2023-02-28T01:10:31;5.10;82.80
9919;DHT22;4998;51.024;13.828;2023-02-28T01:12:58;5.10;82.80
9919;DHT22;4998;51.024;13.828;2023-02-28T01:15:25;5.10;82.80
9919;DHT22;4998;51.024;13.828;2023-02-28T01:17:52;5.10;82.80
9919;DHT22;4998;51.024;13.828;2023-02-28T01:20:20;5.10;82.80
9919;DHT22;4998;51.024;13.828;2023-02-28T01:22:47;5.10;82.70
9919;DHT22;4998;51.024;13.828;2023-02-28T01:25:15;5.00;82.60
9919;DHT22;4998;51.024;13.828;2023-02-28T01:27:42;5.00;82.40
9919;DHT22;4998;51.024;13.828;2023-02-28T01:30:10;5.00;82.40
9919;DHT22;4998;51.024;13.828;2023-02-28T01:32:37;5.00;82.20
9919;DHT22;4998;51.024;13.828;2023-02-28T01:35:05;4.90;82.20
9919;DHT22;4998;51.024;13.828;2023-02-28T01:37:32;4.90;82.10
9919;DHT22;4998;51.024;13.828;2023-02-28T01:39:59;4.90;82.00
9919;DHT22;4998;51.024;13.828;2023-02-28T01:42:27;4.90;82.10
9919;DHT22;4998;51.024;13.828;2023-02-28T01:45:08;4.80;81.90
9919;DHT22;4998;51.024;13.828;2023-02-28T01:47:42;4.80;81.90
9919;DHT22;4998;51.024;13.828;2023-02-28T01:50:13;4.80;82.10
9919;DHT22;4998;51.024;13.828;2023-02-28T01:52:42;4.80;82.10
9919;DHT22;4998;51.024;13.828;2023-02-28T01:55:11;4.70;82.00
9919;DHT22;4998;51.024;13.828;2023-02-28T01:57:42;4.70;82.00
9919;DHT22;4998;51.024;13.828;2023-02-28T02:00:12;4.70;82.00
9919;DHT22;4998;51.024;13.828;2023-02-28T02:02:42;4.70;82.10
9919;DHT22;4998;51.024;13.828;2023-02-28T02:05:14;4.60;82.00
9919;DHT22;4998;51.024;13.828;2023-02-28T02:07:43;4.60;82.00
9919;DHT22;4998;51.024;13.828;2023-02-28T02:10:15;4.60;82.20
9919;DHT22;4998;51.024;13.828;2023-02-28T02:13:00;4.50;82.00
9919;DHT22;4998;51.024;13.828;2023-02-28T02:15:34;4.60;82.00
9919;DHT22;4998;51.024;13.828;2023-02-28T02:18:13;4.50;82.20
9919;DHT22;4998;51.024;13.828;2023-02-28T02:24:02;4.50;82.10
9919;DHT22;4998;51.024;13.828;2023-02-28T02:30:02;4.50;82.20
9919;DHT22;4998;51.024;13.828;2023-02-28T02:35:56;4.50;82.00
9919;DHT22;4998;51.024;13.828;2023-02-28T02:38:32;4.50;82.10
9919;DHT22;4998;51.024;13.828;2023-02-28T02:41:08;4.50;82.20
9919;DHT22;4998;51.024;13.828;2023-02-28T02:43:38;4.50;82.10
9919;DHT22;4998;51.024;13.828;2023-02-28T02:46:12;4.40;82.30
9919;DHT22;4998;51.024;13.828;2023-02-28T02:48:42;4.40;82.20
9919;DHT22;4998;51.024;13.828;2023-02-28T02:51:14;4.40;82.20
9919;DHT22;4998;51.024;13.828;2023-02-28T02:53:45;4.40;82.20
9919;DHT22;4998;51.024;13.828;2023-02-28T02:56:16;4.40;82.30
9919;DHT22;4998;51.024;13.828;2023-02-28T02:58:47;4.40;82.50
9919;DHT22;4998;51.024;13.828;2023-02-28T03:01:18;4.40;82.40
9919;DHT22;4998;51.024;13.828;2023-02-28T03:03:54;4.30;82.30
9919;DHT22;4998;51.024;13.828;2023-02-28T03:06:23;4.30;82.40
9919;DHT22;4998;51.024;13.828;2023-02-28T03:08:50;4.30;82.40
9919;DHT22;4998;51.024;13.828;2023-02-28T03:11:18;4.30;82.60
9919;DHT22;4998;51.024;13.828;2023-02-28T03:13:58;4.30;82.70
9919;DHT22;4998;51.024;13.828;2023-02-28T03:16:49;4.30;82.60
9919;DHT22;4998;51.024;13.828;2023-02-28T03:19:32;4.30;82.70
9919;DHT22;4998;51.024;13.828;2023-02-28T03:22:16;4.30;82.60
9919;DHT22;4998;51.024;13.828;2023-02-28T03:24:50;4.30;82.30
9919;DHT22;4998;51.024;13.828;2023-02-28T03:27:24;4.20;82.10
9919;DHT22;4998;51.024;13.828;2023-02-28T03:29:59;4.20;82.20
9919;DHT22;4998;51.024;13.828;2023-02-28T03:32:32;4.20;82.10
9919;DHT22;4998;51.024;13.828;2023-02-28T03:35:03;4.10;82.10
9919;DHT22;4998;51.024;13.828;2023-02-28T03:37:35;4.10;82.20
9919;DHT22;4998;51.024;13.828;2023-02-28T03:40:06;4.10;82.30
9919;DHT22;4998;51.024;13.828;2023-02-28T03:42:39;4.00;82.20
9919;DHT22;4998;51.024;13.828;2023-02-28T03:45:13;4.00;82.10
9919;DHT22;4998;51.024;13.828;2023-02-28T03:47:43;4.00;82.00
9919;DHT22;4998;51.024;13.828;2023-02-28T03:50:15;3.90;82.00
9919;DHT22;4998;51.024;13.828;2023-02-28T03:52:51;3.90;82.00
9919;DHT22;4998;51.024;13.828;2023-02-28T03:55:20;3.90;82.00
9919;DHT22;4998;51.024;13.828;2023-02-28T03:57:55;3.80;81.90
9919;DHT22;4998;51.024;13.828;2023-02-28T04:00:28;3.80;81.90
9919;DHT22;4998;51.024;13.828;2023-02-28T04:02:58;3.80;82.10
9919;DHT22;4998;51.024;13.828;2023-02-28T04:05:26;3.70;82.00
9919;DHT22;4998;51.024;13.828;2023-02-28T04:08:03;3.70;82.00
9919;DHT22;4998;51.024;13.828;2023-02-28T04:10:31;3.60;82.00
9919;DHT22;4998;51.024;13.828;2023-02-28T04:12:58;3.60;82.00
9919;DHT22;4998;51.024;13.828;2023-02-28T04:15:25;3.60;81.90
9919;DHT22;4998;51.024;13.828;2023-02-28T04:17:53;3.60;82.00
9919;DHT22;4998;51.024;13.828;2023-02-28T04:20:20;3.50;82.00
9919;DHT22;4998;51.024;13.828;2023-02-28T04:22:47;3.50;81.90
9919;DHT22;4998;51.024;13.828;2023-02-28T04:25:15;3.50;81.80
9919;DHT22;4998;51.024;13.828;2023-02-28T04:27:42;3.40;81.70
9919;DHT22;4998;51.024;13.828;2023-02-28T04:30:11;3.40;81.70
9919;DHT22;4998;51.024;13.828;2023-02-28T04:32:38;3.40;81.70
9919;DHT22;4998;51.024;13.828;2023-02-28T04:35:05;3.30;81.60
9919;DHT22;4998;51.024;13.828;2023-02-28T04:37:33;3.30;81.80
9919;DHT22;4998;51.024;13.828;2023-02-28T04:40:00;3.30;81.90
9919;DHT22;4998;51.024;13.828;2023-02-28T04:42:29;3.20;82.00
9919;DHT22;4998;51.024;13.828;2023-02-28T04:45:01;3.20;82.00
9919;DHT22;4998;51.024;13.828;2023-02-28T04:47:28;3.20;82.20
9919;DHT22;4998;51.024;13.828;2023-02-28T04:49:55;3.20;82.30
9919;DHT22;4998;51.024;13.828;2023-02-28T04:52:22;3.10;82.40
9919;DHT22;4998;51.024;13.828;2023-02-28T04:54:49;3.10;82.50
9919;DHT22;4998;51.024;13.828;2023-02-28T04:57:16;3.10;82.50
9919;DHT22;4998;51.024;13.828;2023-02-28T04:59:44;3.10;82.50
9919;DHT22;4998;51.024;13.828;2023-02-28T05:02:12;3.00;82.50
9919;DHT22;4998;51.024;13.828;2023-02-28T05:04:38;3.00;82.70
9919;DHT22;4998;51.024;13.828;2023-02-28T05:07:06;3.00;82.80
9919;DHT22;4998;51.024;13.828;2023-02-28T05:09:32;2.90;82.80
9919;DHT22;4998;51.024;13.828;2023-02-28T05:12:00;2.90;82.90
9919;DHT22;4998;51.024;13.828;2023-02-28T05:14:27;2.90;82.80
9919;DHT22;4998;51.024;13.828;2023-02-28T05:16:55;2.90;82.90
9919;DHT22;4998;51.024;13.828;2023-02-28T05:19:22;2.90;83.00
9919;DHT22;4998;51.024;13.828;2023-02-28T05:21:51;2.80;83.00
9919;DHT22;4998;51.024;13.828;2023-02-28T05:24:18;2.80;83.10
9919;DHT22;4998;51.024;13.828;2023-02-28T05:26:49;2.80;83.10
9919;DHT22;4998;51.024;13.828;2023-02-28T05:29:17;2.80;83.10
9919;DHT22;4998;51.024;13.828;2023-02-28T05:31:43;2.80;83.20
9919;DHT22;4998;51.024;13.828;2023-02-28T05:34:12;2.70;82.90
9919;DHT22;4998;51.024;13.828;2023-02-28T05:36:41;2.70;83.00
9919;DHT22;4998;51.024;13.828;2023-02-28T05:39:08;2.70;82.90
9919;DHT22;4998;51.024;13.828;2023-02-28T05:41:41;2.60;83.00
9919;DHT22;4998;51.024;13.828;2023-02-28T05:44:08;2.60;83.10
9919;DHT22;4998;51.024;13.828;2023-02-28T05:46:35;2.60;83.10
9919;DHT22;4998;51.024;13.828;2023-02-28T05:49:03;2.60;83.10
9919;DHT22;4998;51.024;13.828;2023-02-28T05:51:31;2.50;83.10
9919;DHT22;4998;51.024;13.828;2023-02-28T05:54:00;2.50;83.40
9919;DHT22;4998;51.024;13.828;2023-02-28T05:56:28;2.50;83.40
9919;DHT22;4998;51.024;13.828;2023-02-28T05:58:55;2.50;83.70
9919;DHT22;4998;51.024;13.828;2023-02-28T06:01:30;2.50;83.80
9919;DHT22;4998;51.024;13.828;2023-02-28T06:03:58;2.40;83.80
9919;DHT22;4998;51.024;13.828;2023-02-28T06:06:25;2.40;83.90
9919;DHT22;4998;51.024;13.828;2023-02-28T06:08:53;2.40;84.10
9919;DHT22;4998;51.024;13.828;2023-02-28T06:11:20;2.40;84.30
9919;DHT22;4998;51.024;13.828;2023-02-28T06:13:53;2.40;84.40
9919;DHT22;4998;51.024;13.828;2023-02-28T06:16:21;2.40;84.60
9919;DHT22;4998;51.024;13.828;2023-02-28T06:18:48;2.40;84.60
9919;DHT22;4998;51.024;13.828;2023-02-28T06:21:15;2.30;84.40
9919;DHT22;4998;51.024;13.828;2023-02-28T06:23:42;2.40;84.70
9919;DHT22;4998;51.024;13.828;2023-02-28T06:26:11;2.40;84.80
9919;DHT22;4998;51.024;13.828;2023-02-28T06:28:37;2.50;85.00
9919;DHT22;4998;51.024;13.828;2023-02-28T06:31:09;2.50;85.10
9919;DHT22;4998;51.024;13.828;2023-02-28T06:33:37;2.50;85.20
9919;DHT22;4998;51.024;13.828;2023-02-28T06:36:06;2.50;85.30
9919;DHT22;4998;51.024;13.828;2023-02-28T06:38:33;2.50;85.50
9919;DHT22;4998;51.024;13.828;2023-02-28T06:41:01;2.50;85.50
9919;DHT22;4998;51.024;13.828;2023-02-28T06:43:31;2.50;85.70
9919;DHT22;4998;51.024;13.828;2023-02-28T06:46:00;2.60;86.10
9919;DHT22;4998;51.024;13.828;2023-02-28T06:48:28;2.60;86.20
9919;DHT22;4998;51.024;13.828;2023-02-28T06:51:03;2.70;86.40
9919;DHT22;4998;51.024;13.828;2023-02-28T06:53:30;2.70;86.50
9919;DHT22;4998;51.024;13.828;2023-02-28T06:55:58;2.80;86.60
9919;DHT22;4998;51.024;13.828;2023-02-28T06:58:25;2.80;86.90
9919;DHT22;4998;51.024;13.828;2023-02-28T07:00:53;2.90;87.10
9919;DHT22;4998;51.024;13.828;2023-02-28T07:03:21;3.00;87.20
9919;DHT22;4998;51.024;13.828;2023-02-28T07:05:48;3.10;87.20
9919;DHT22;4998;51.024;13.828;2023-02-28T07:08:16;3.20;87.20
9919;DHT22;4998;51.024;13.828;2023-02-28T07:10:43;3.40;87.50
9919;DHT22;4998;51.024;13.828;2023-02-28T07:13:11;3.50;87.30
9919;DHT22;4998;51.024;13.828;2023-02-28T07:15:38;3.60;87.10
9919;DHT22;4998;51.024;13.828;2023-02-28T07:18:06;3.70;86.90
9919;DHT22;4998;51.024;13.828;2023-02-28T07:20:33;3.80;86.60
9919;DHT22;4998;51.024;13.828;2023-02-28T07:23:00;4.00;86.30
9919;DHT22;4998;51.024;13.828;2023-02-28T07:25:28;4.10;85.80
9919;DHT22;4998;51.024;13.828;2023-02-28T07:27:56;4.20;85.20
9919;DHT22;4998;51.024;13.828;2023-02-28T07:30:24;4.20;84.60
9919;DHT22;4998;51.024;13.828;2023-02-28T07:32:51;4.30;84.30
9919;DHT22;4998;51.024;13.828;2023-02-28T07:35:21;4.40;84.90
9919;DHT22;4998;51.024;13.828;2023-02-28T07:37:49;4.40;83.90
9919;DHT22;4998;51.024;13.828;2023-02-28T07:40:16;4.50;83.90
9919;DHT22;4998;51.024;13.828;2023-02-28T07:42:43;4.50;83.70
9919;DHT22;4998;51.024;13.828;2023-02-28T07:45:11;4.60;83.70
9919;DHT22;4998;51.024;13.828;2023-02-28T07:47:38;4.70;83.60
9919;DHT22;4998;51.024;13.828;2023-02-28T07:50:05;4.70;83.50
9919;DHT22;4998;51.024;13.828;2023-02-28T07:52:34;4.70;83.20
9919;DHT22;4998;51.024;13.828;2023-02-28T07:55:01;4.80;83.10
9919;DHT22;4998;51.024;13.828;2023-02-28T07:57:28;4.80;83.20
9919;DHT22;4998;51.024;13.828;2023-02-28T07:59:55;4.90;83.10
9919;DHT22;4998;51.024;13.828;2023-02-28T08:02:22;4.90;83.00
9919;DHT22;4998;51.024;13.828;2023-02-28T08:04:49;4.90;82.90
9919;DHT22;4998;51.024;13.828;2023-02-28T08:07:16;5.00;83.00
9919;DHT22;4998;51.024;13.828;2023-02-28T08:09:45;5.00;82.80
9919;DHT22;4998;51.024;13.828;2023-02-28T08:12:12;5.10;82.50
9919;DHT22;4998;51.024;13.828;2023-02-28T08:14:39;5.10;82.10
9919;DHT22;4998;51.024;13.828;2023-02-28T08:17:06;5.10;81.80
9919;DHT22;4998;51.024;13.828;2023-02-28T08:19:33;5.10;81.80
9919;DHT22;4998;51.024;13.828;2023-02-28T08:22:00;5.10;81.80
9919;DHT22;4998;51.024;13.828;2023-02-28T08:24:27;5.10;81.80
9919;DHT22;4998;51.024;13.828;2023-02-28T08:26:55;5.20;82.00
9919;DHT22;4998;51.024;13.828;2023-02-28T08:29:23;5.20;81.80
9919;DHT22;4998;51.024;13.828;2023-02-28T08:31:49;5.30;82.20
9919;DHT22;4998;51.024;13.828;2023-02-28T08:34:16;5.30;82.40
9919;DHT22;4998;51.024;13.828;2023-02-28T08:36:44;5.30;82.50
9919;DHT22;4998;51.024;13.828;2023-02-28T08:39:11;5.40;82.40
9919;DHT22;4998;51.024;13.828;2023-02-28T08:41:38;5.50;82.20
9919;DHT22;4998;51.024;13.828;2023-02-28T08:44:07;5.50;82.20
9919;DHT22;4998;51.024;13.828;2023-02-28T08:46:34;5.60;82.00
9919;DHT22;4998;51.024;13.828;2023-02-28T08:49:01;5.60;82.20
9919;DHT22;4998;51.024;13.828;2023-02-28T08:51:28;5.70;82.20
9919;DHT22;4998;51.024;13.828;2023-02-28T08:53:57;5.70;82.00
9919;DHT22;4998;51.024;13.828;2023-02-28T08:56:26;5.80;81.80
9919;DHT22;4998;51.024;13.828;2023-02-28T08:58:54;5.90;81.60
9919;DHT22;4998;51.024;13.828;2023-02-28T09:01:25;6.00;81.10
9919;DHT22;4998;51.024;13.828;2023-02-28T09:03:53;6.10;81.10
9919;DHT22;4998;51.024;13.828;2023-02-28T09:06:21;6.10;81.00
9919;DHT22;4998;51.024;13.828;2023-02-28T09:08:49;6.20;80.70
9919;DHT22;4998;51.024;13.828;2023-02-28T09:11:16;6.30;80.50
9919;DHT22;4998;51.024;13.828;2023-02-28T09:13:45;6.30;80.20
9919;DHT22;4998;51.024;13.828;2023-02-28T09:16:13;6.40;80.10
9919;DHT22;4998;51.024;13.828;2023-02-28T09:18:43;6.40;79.40
9919;DHT22;4998;51.024;13.828;2023-02-28T09:21:13;6.50;78.80
9919;DHT22;4998;51.024;13.828;2023-02-28T09:23:40;6.60;78.30
9919;DHT22;4998;51.024;13.828;2023-02-28T09:26:11;6.70;78.40
9919;DHT22;4998;51.024;13.828;2023-02-28T09:28:39;6.70;77.90
9919;DHT22;4998;51.024;13.828;2023-02-28T09:31:10;6.70;77.30
9919;DHT22;4998;51.024;13.828;2023-02-28T09:33:38;6.80;76.90
9919;DHT22;4998;51.024;13.828;2023-02-28T09:36:07;6.80;76.20
9919;DHT22;4998;51.024;13.828;2023-02-28T09:38:34;6.80;74.90
9919;DHT22;4998;51.024;13.828;2023-02-28T09:41:03;6.70;73.80
9919;DHT22;4998;51.024;13.828;2023-02-28T09:43:34;6.70;73.50
9919;DHT22;4998;51.024;13.828;2023-02-28T09:46:08;6.70;73.30
9919;DHT22;4998;51.024;13.828;2023-02-28T09:48:41;6.60;72.90
9919;DHT22;4998;51.024;13.828;2023-02-28T09:51:16;6.60;72.40
9919;DHT22;4998;51.024;13.828;2023-02-28T09:53:49;6.60;71.60
9919;DHT22;4998;51.024;13.828;2023-02-28T09:56:21;6.50;71.50
9919;DHT22;4998;51.024;13.828;2023-02-28T09:58:56;6.50;70.40
9919;DHT22;4998;51.024;13.828;2023-02-28T10:01:27;6.40;69.80
9919;DHT22;4998;51.024;13.828;2023-02-28T10:03:58;6.30;70.30
9919;DHT22;4998;51.024;13.828;2023-02-28T10:06:30;6.30;70.70
9919;DHT22;4998;51.024;13.828;2023-02-28T10:09:02;6.30;70.70
9919;DHT22;4998;51.024;13.828;2023-02-28T10:11:33;6.30;70.70
9919;DHT22;4998;51.024;13.828;2023-02-28T10:14:05;6.30;70.90
9919;DHT22;4998;51.024;13.828;2023-02-28T10:16:40;6.30;71.20
9919;DHT22;4998;51.024;13.828;2023-02-28T10:19:16;6.40;71.40
9919;DHT22;4998;51.024;13.828;2023-02-28T10:21:52;6.50;71.60
9919;DHT22;4998;51.024;13.828;2023-02-28T10:24:27;6.50;70.50
9919;DHT22;4998;51.024;13.828;2023-02-28T10:26:59;6.60;70.20
9919;DHT22;4998;51.024;13.828;2023-02-28T10:29:27;6.60;70.30
9919;DHT22;4998;51.024;13.828;2023-02-28T10:31:55;6.70;71.00
9919;DHT22;4998;51.024;13.828;2023-02-28T10:34:22;6.80;71.00
9919;DHT22;4998;51.024;13.828;2023-02-28T10:36:52;6.90;70.90
9919;DHT22;4998;51.024;13.828;2023-02-28T10:39:40;6.90;69.70
9919;DHT22;4998;51.024;13.828;2023-02-28T10:42:20;7.00;69.70
9919;DHT22;4998;51.024;13.828;2023-02-28T10:44:47;7.00;69.20
9919;DHT22;4998;51.024;13.828;2023-02-28T10:47:16;7.10;69.00
9919;DHT22;4998;51.024;13.828;2023-02-28T10:49:47;7.10;68.20
9919;DHT22;4998;51.024;13.828;2023-02-28T10:52:33;7.10;67.80
9919;DHT22;4998;51.024;13.828;2023-02-28T10:55:20;7.20;67.60
9919;DHT22;4998;51.024;13.828;2023-02-28T10:57:48;7.20;67.30
9919;DHT22;4998;51.024;13.828;2023-02-28T11:00:18;7.20;67.20
9919;DHT22;4998;51.024;13.828;2023-02-28T11:02:47;7.10;66.30
9919;DHT22;4998;51.024;13.828;2023-02-28T11:05:25;7.10;66.70
9919;DHT22;4998;51.024;13.828;2023-02-28T11:07:55;7.10;66.90
9919;DHT22;4998;51.024;13.828;2023-02-28T11:10:26;7.10;66.50
9919;DHT22;4998;51.024;13.828;2023-02-28T11:12:56;7.10;66.10
9919;DHT22;4998;51.024;13.828;2023-02-28T11:15:25;7.10;66.40
9919;DHT22;4998;51.024;13.828;2023-02-28T11:17:57;7.10;65.90
9919;DHT22;4998;51.024;13.828;2023-02-28T11:20:28;7.10;65.80
9919;DHT22;4998;51.024;13.828;2023-02-28T11:22:57;7.10;65.40
9919;DHT22;4998;51.024;13.828;2023-02-28T11:25:30;7.10;65.20
9919;DHT22;4998;51.024;13.828;2023-02-28T11:27:59;7.10;64.90
9919;DHT22;4998;51.024;13.828;2023-02-28T11:30:33;7.00;64.80
9919;DHT22;4998;51.024;13.828;2023-02-28T11:33:10;7.00;64.40
9919;DHT22;4998;51.024;13.828;2023-02-28T11:35:45;7.00;63.80
9919;DHT22;4998;51.024;13.828;2023-02-28T11:38:16;7.00;64.10
9919;DHT22;4998;51.024;13.828;2023-02-28T11:40:48;7.00;63.50
9919;DHT22;4998;51.024;13.828;2023-02-28T11:43:28;6.90;63.10
9919;DHT22;4998;51.024;13.828;2023-02-28T11:46:10;6.90;62.90
9919;DHT22;4998;51.024;13.828;2023-02-28T11:48:52;6.80;63.30
9919;DHT22;4998;51.024;13.828;2023-02-28T11:51:27;6.80;63.30
9919;DHT22;4998;51.024;13.828;2023-02-28T11:54:11;6.80;63.30
9919;DHT22;4998;51.024;13.828;2023-02-28T11:56:47;6.70;63.20
9919;DHT22;4998;51.024;13.828;2023-02-28T12:02:29;6.70;63.00
9919;DHT22;4998;51.024;13.828;2023-02-28T12:05:10;6.70;62.60
9919;DHT22;4998;51.024;13.828;2023-02-28T12:07:49;6.70;62.10
9919;DHT22;4998;51.024;13.828;2023-02-28T12:10:23;6.60;62.40
9919;DHT22;4998;51.024;13.828;2023-02-28T12:13:01;6.60;62.00
9919;DHT22;4998;51.024;13.828;2023-02-28T12:15:40;6.60;62.90
9919;DHT22;4998;51.024;13.828;2023-02-28T12:18:23;6.60;62.70
9919;DHT22;4998;51.024;13.828;2023-02-28T12:20:56;6.70;62.70
9919;DHT22;4998;51.024;13.828;2023-02-28T12:23:48;6.70;63.00
9919;DHT22;4998;51.024;13.828;2023-02-28T12:26:24;6.70;62.70
9919;DHT22;4998;51.024;13.828;2023-02-28T12:28:57;6.70;62.30
9919;DHT22;4998;51.024;13.828;2023-02-28T12:31:28;6.70;62.40
9919;DHT22;4998;51.024;13.828;2023-02-28T12:33:59;6.70;62.30
9919;DHT22;4998;51.024;13.828;2023-02-28T12:36:29;6.70;61.60
9919;DHT22;4998;51.024;13.828;2023-02-28T12:39:01;6.70;62.60
9919;DHT22;4998;51.024;13.828;2023-02-28T12:41:36;6.80;62.40
9919;DHT22;4998;51.024;13.828;2023-02-28T12:44:09;6.80;62.10
9919;DHT22;4998;51.024;13.828;2023-02-28T12:46:41;6.80;62.20
9919;DHT22;4998;51.024;13.828;2023-02-28T12:49:12;6.80;62.40
9919;DHT22;4998;51.024;13.828;2023-02-28T12:51:41;6.80;62.40
9919;DHT22;4998;51.024;13.828;2023-02-28T12:54:15;6.90;62.80
9919;DHT22;4998;51.024;13.828;2023-02-28T12:56:52;6.90;62.30
9919;DHT22;4998;51.024;13.828;2023-02-28T12:59:25;7.00;62.30
9919;DHT22;4998;51.024;13.828;2023-02-28T13:02:02;7.00;61.70
9919;DHT22;4998;51.024;13.828;2023-02-28T13:08:04;7.00;61.20
9919;DHT22;4998;51.024;13.828;2023-02-28T13:10:43;7.00;61.20
9919;DHT22;4998;51.024;13.828;2023-02-28T13:13:18;7.00;61.30
9919;DHT22;4998;51.024;13.828;2023-02-28T13:15:58;7.00;61.40
9919;DHT22;4998;51.024;13.828;2023-02-28T13:18:30;7.00;61.40
9919;DHT22;4998;51.024;13.828;2023-02-28T13:20:58;7.00;61.50
9919;DHT22;4998;51.024;13.828;2023-02-28T13:24:00;7.00;61.50
9919;DHT22;4998;51.024;13.828;2023-02-28T13:29:39;7.00;61.10
9919;DHT22;4998;51.024;13.828;2023-02-28T13:32:41;7.00;61.60
9919;DHT22;4998;51.024;13.828;2023-02-28T13:38:13;7.00;61.50
9919;DHT22;4998;51.024;13.828;2023-02-28T13:40:42;7.10;61.10
9919;DHT22;4998;51.024;13.828;2023-02-28T13:43:09;7.10;61.70
9919;DHT22;4998;51.024;13.828;2023-02-28T13:45:37;7.10;61.80
9919;DHT22;4998;51.024;13.828;2023-02-28T13:48:16;7.10;61.50
9919;DHT22;4998;51.024;13.828;2023-02-28T13:50:43;7.10;61.20
9919;DHT22;4998;51.024;13.828;2023-02-28T13:53:39;7.10;61.40
9919;DHT22;4998;51.024;13.828;2023-02-28T13:56:23;7.20;61.20
9919;DHT22;4998;51.024;13.828;2023-02-28T13:58:56;7.20;61.70
9919;DHT22;4998;51.024;13.828;2023-02-28T14:01:35;7.20;61.40
9919;DHT22;4998;51.024;13.828;2023-02-28T14:04:35;7.30;60.80
9919;DHT22;4998;51.024;13.828;2023-02-28T14:07:06;7.30;60.90
9919;DHT22;4998;51.024;13.828;2023-02-28T14:09:35;7.30;61.10
9919;DHT22;4998;51.024;13.828;2023-02-28T14:15:28;7.30;60.90
9919;DHT22;4998;51.024;13.828;2023-02-28T14:18:00;7.30;60.90
9919;DHT22;4998;51.024;13.828;2023-02-28T14:20:31;7.30;61.10
9919;DHT22;4998;51.024;13.828;2023-02-28T14:23:04;7.30;60.90
9919;DHT22;4998;51.024;13.828;2023-02-28T14:25:41;7.30;60.50
9919;DHT22;4998;51.024;13.828;2023-02-28T14:28:17;7.40;60.80
9919;DHT22;4998;51.024;13.828;2023-02-28T14:31:06;7.40;60.60
9919;DHT22;4998;51.024;13.828;2023-02-28T14:33:59;7.40;60.80
9919;DHT22;4998;51.024;13.828;2023-02-28T14:36:33;7.40;60.50
9919;DHT22;4998;51.024;13.828;2023-02-28T14:39:05;7.40;60.80
9919;DHT22;4998;51.024;13.828;2023-02-28T14:41:35;7.50;60.60
9919;DHT22;4998;51.024;13.828;2023-02-28T14:44:14;7.50;60.60
9919;DHT22;4998;51.024;13.828;2023-02-28T14:46:42;7.50;60.00
9919;DHT22;4998;51.024;13.828;2023-02-28T14:49:24;7.50;60.40
9919;DHT22;4998;51.024;13.828;2023-02-28T14:52:02;7.50;59.80
9919;DHT22;4998;51.024;13.828;2023-02-28T14:54:30;7.50;59.60
9919;DHT22;4998;51.024;13.828;2023-02-28T14:56:57;7.60;59.70
9919;DHT22;4998;51.024;13.828;2023-02-28T14:59:27;7.60;59.80
9919;DHT22;4998;51.024;13.828;2023-02-28T15:02:14;7.50;59.50
9919;DHT22;4998;51.024;13.828;2023-02-28T15:04:43;7.50;59.60
9919;DHT22;4998;51.024;13.828;2023-02-28T15:07:12;7.50;59.60
9919;DHT22;4998;51.024;13.828;2023-02-28T15:09:39;7.50;59.60
9919;DHT22;4998;51.024;13.828;2023-02-28T15:12:07;7.50;59.60
9919;DHT22;4998;51.024;13.828;2023-02-28T15:14:35;7.40;59.40
9919;DHT22;4998;51.024;13.828;2023-02-28T15:17:09;7.40;59.50
9919;DHT22;4998;51.024;13.828;2023-02-28T15:19:43;7.40;59.40
9919;DHT22;4998;51.024;13.828;2023-02-28T15:22:16;7.40;59.40
9919;DHT22;4998;51.024;13.828;2023-02-28T15:24:47;7.40;59.30
9919;DHT22;4998;51.024;13.828;2023-02-28T15:27:19;7.30;59.20
9919;DHT22;4998;51.024;13.828;2023-02-28T15:29:49;7.30;59.30
9919;DHT22;4998;51.024;13.828;2023-02-28T15:32:26;7.30;59.60
9919;DHT22;4998;51.024;13.828;2023-02-28T15:34:55;7.30;59.40
9919;DHT22;4998;51.024;13.828;2023-02-28T15:37:28;7.30;59.80
9919;DHT22;4998;51.024;13.828;2023-02-28T15:39:58;7.30;59.80
9919;DHT22;4998;51.024;13.828;2023-02-28T15:42:30;7.30;59.70
9919;DHT22;4998;51.024;13.828;2023-02-28T15:44:57;7.30;59.70
9919;DHT22;4998;51.024;13.828;2023-02-28T15:47:27;7.30;59.60
9919;DHT22;4998;51.024;13.828;2023-02-28T15:49:58;7.30;59.40
9919;DHT22;4998;51.024;13.828;2023-02-28T15:52:29;7.20;59.60
9919;DHT22;4998;51.024;13.828;2023-02-28T15:55:08;7.30;59.60
9919;DHT22;4998;51.024;13.828;2023-02-28T15:57:39;7.30;59.70
9919;DHT22;4998;51.024;13.828;2023-02-28T16:00:12;7.20;59.60
9919;DHT22;4998;51.024;13.828;2023-02-28T16:02:40;7.30;59.30
9919;DHT22;4998;51.024;13.828;2023-02-28T16:05:30;7.30;60.10
9919;DHT22;4998;51.024;13.828;2023-02-28T16:07:59;7.30;59.40
9919;DHT22;4998;51.024;13.828;2023-02-28T16:10:28;7.30;59.70
9919;DHT22;4998;51.024;13.828;2023-02-28T16:12:56;7.20;59.60
9919;DHT22;4998;51.024;13.828;2023-02-28T16:15:26;7.20;59.50
9919;DHT22;4998;51.024;13.828;2023-02-28T16:17:55;7.20;59.50
9919;DHT22;4998;51.024;13.828;2023-02-28T16:20:23;7.20;59.80
9919;DHT22;4998;51.024;13.828;2023-02-28T16:22:53;7.20;59.70
9919;DHT22;4998;51.024;13.828;2023-02-28T16:25:23;7.20;59.60
9919;DHT22;4998;51.024;13.828;2023-02-28T16:27:53;7.20;59.70
9919;DHT22;4998;51.024;13.828;2023-02-28T16:30:24;7.20;59.60
9919;DHT22;4998;51.024;13.828;2023-02-28T16:32:54;7.10;59.60
9919;DHT22;4998;51.024;13.828;2023-02-28T16:35:23;7.10;59.60
9919;DHT22;4998;51.024;13.828;2023-02-28T16:37:50;7.10;59.40
9919;DHT22;4998;51.024;13.828;2023-02-28T16:40:20;7.10;59.30
9919;DHT22;4998;51.024;13.828;2023-02-28T16:42:49;7.00;59.10
9919;DHT22;4998;51.024;13.828;2023-02-28T16:45:19;7.00;59.10
9919;DHT22;4998;51.024;13.828;2023-02-28T16:47:47;7.00;59.00
9919;DHT22;4998;51.024;13.828;2023-02-28T16:50:18;6.90;59.10
9919;DHT22;4998;51.024;13.828;2023-02-28T16:52:46;6.90;58.80